Time,TemperatureF,DewpointF,PressureIn,WindDirection,WindDirectionDegrees,WindSpeedMPH,WindSpeedGustMPH,Humidity,HourlyPrecipIn,Conditions,Clouds,dailyrainin,SoftwareType,DateUTC
2013-08-22 00:04:00,64.0,48.0,29.86,SE,124,1.0,6.0,56,0.00,,,0.00,,2013-08-22 04:04:00,
2013-08-22 00:14:00,64.0,48.0,29.86,SE,124,1.0,6.0,56,0.00,,,0.00,,2013-08-22 04:14:00,
2013-08-22 00:23:00,69.0,50.0,29.84,ESE,120,2.0,10.0,50,0.00,,,0.00,,2013-08-22 04:23:00,
2013-08-22 00:34:00,69.0,50.0,29.84,ESE,120,2.0,10.0,50,0.00,,,0.00,,2013-08-22 04:34:00,
2013-08-22 00:44:00,69.0,50.0,29.84,ESE,120,2.0,10.0,50,0.00,,,0.00,,2013-08-22 04:44:00,
2013-08-22 00:54:00,68.0,51.0,29.85,ENE,78,5.0,12.0,54,0.00,,,0.00,,2013-08-22 04:54:00,
2013-08-22 01:03:00,68.0,51.0,29.85,ENE,78,5.0,12.0,54,0.00,,,0.00,,2013-08-22 05:03:00,
2013-08-22 01:13:00,68.0,51.0,29.85,ENE,78,5.0,12.0,54,0.00,,,0.00,,2013-08-22 05:13:00,
2013-08-22 01:22:00,68.0,53.0,29.85,ENE,72,4.0,16.0,58,0.00,,,0.00,,2013-08-22 05:22:00,
2013-08-22 01:34:00,68.0,53.0,29.85,ENE,72,4.0,16.0,58,0.00,,,0.00,,2013-08-22 05:34:00,
2013-08-22 01:43:00,68.0,53.0,29.85,ENE,72,4.0,16.0,58,0.00,,,0.00,,2013-08-22 05:43:00,
2013-08-22 01:53:00,68.0,53.0,29.85,ENE,72,4.0,16.0,58,0.00,,,0.00,,2013-08-22 05:53:00,
2013-08-22 02:12:00,67.0,54.0,29.84,ESE,104,3.0,16.0,62,0.00,,,0.00,,2013-08-22 06:12:00,
2013-08-22 02:22:00,66.0,54.0,29.84,NE,37,1.0,12.0,65,0.00,,,0.00,,2013-08-22 06:22:00,
2013-08-22 02:32:00,66.0,54.0,29.84,NE,37,1.0,12.0,65,0.00,,,0.00,,2013-08-22 06:32:00,
2013-08-22 02:42:00,66.0,54.0,29.84,NE,37,1.0,12.0,65,0.00,,,0.00,,2013-08-22 06:42:00,
2013-08-22 02:52:00,65.0,53.0,29.84,East,85,0.0,8.0,66,0.00,,,0.00,,2013-08-22 06:52:00,
2013-08-22 03:02:00,65.0,53.0,29.84,East,85,0.0,8.0,66,0.00,,,0.00,,2013-08-22 07:02:00,
2013-08-22 03:12:00,65.0,53.0,29.84,East,85,0.0,8.0,66,0.00,,,0.00,,2013-08-22 07:12:00,
2013-08-22 03:22:00,62.0,52.0,29.85,East,86,1.0,5.0,71,0.00,,,0.00,,2013-08-22 07:22:00,
2013-08-22 03:32:00,62.0,52.0,29.85,East,86,1.0,5.0,71,0.00,,,0.00,,2013-08-22 07:32:00,
2013-08-22 03:42:00,62.0,52.0,29.85,East,86,1.0,5.0,71,0.00,,,0.00,,2013-08-22 07:42:00,
2013-08-22 03:53:00,59.0,52.0,29.86,East,86,0.0,1.0,77,0.00,,,0.00,,2013-08-22 07:53:00,
2013-08-22 04:03:00,59.0,52.0,29.86,East,86,0.0,1.0,77,0.00,,,0.00,,2013-08-22 08:03:00,
2013-08-22 04:12:00,59.0,52.0,29.86,East,86,0.0,1.0,77,0.00,,,0.00,,2013-08-22 08:12:00,
2013-08-22 04:43:00,57.0,52.0,29.87,East,86,0.0,3.0,82,0.00,,,0.00,,2013-08-22 08:43:00,
2013-08-22 04:53:00,56.0,52.0,29.85,East,89,0.0,3.0,85,0.00,,,0.00,,2013-08-22 08:53:00,
2013-08-22 05:01:00,56.0,52.0,29.85,East,89,0.0,3.0,85,0.00,,,0.00,,2013-08-22 09:01:00,
2013-08-22 05:11:00,56.0,52.0,29.85,East,89,0.0,3.0,85,0.00,,,0.00,,2013-08-22 09:11:00,
2013-08-22 05:22:00,57.0,54.0,29.84,ESE,121,1.0,5.0,89,0.00,,,0.00,,2013-08-22 09:22:00,
2013-08-22 05:33:00,57.0,54.0,29.84,ESE,121,1.0,5.0,89,0.00,,,0.00,,2013-08-22 09:33:00,
2013-08-22 05:43:00,57.0,54.0,29.84,ESE,121,1.0,5.0,89,0.00,,,0.00,,2013-08-22 09:43:00,
2013-08-22 05:54:00,63.0,54.0,29.80,SSE,157,0.0,13.0,72,0.00,,,0.00,,2013-08-22 09:54:00,
2013-08-22 06:03:00,63.0,54.0,29.80,SSE,157,0.0,13.0,72,0.00,,,0.00,,2013-08-22 10:03:00,
2013-08-22 06:12:00,63.0,54.0,29.80,SSE,157,0.0,13.0,72,0.00,,,0.00,,2013-08-22 10:12:00,
2013-08-22 06:23:00,60.0,52.0,29.81,SSE,155,0.0,3.0,76,0.00,,,0.00,,2013-08-22 10:23:00,
2013-08-22 06:32:00,60.0,52.0,29.81,SSE,155,0.0,3.0,76,0.00,,,0.00,,2013-08-22 10:32:00,
2013-08-22 06:34:00,56.0,51.0,29.85,SSE,155,0.0,1.0,84,0.00,,,0.00,,2013-08-22 10:34:00,
2013-08-22 06:42:00,60.0,52.0,29.81,SSE,155,0.0,3.0,76,0.00,,,0.00,,2013-08-22 10:42:00,
2013-08-22 08:42:00,51.0,48.0,29.90,SSE,155,0.0,2.0,91,0.00,,,0.00,,2013-08-22 12:42:00,
2013-08-22 09:12:00,51.0,49.0,29.93,SSE,155,0.0,3.0,92,0.00,,,0.00,,2013-08-22 13:12:00,
2013-08-22 09:52:00,58.0,56.0,29.92,SSE,155,0.0,3.0,92,0.00,,,0.00,,2013-08-22 13:52:00,
2013-08-22 10:02:00,58.0,56.0,29.92,SSE,155,0.0,3.0,92,0.00,,,0.00,,2013-08-22 14:02:00,
2013-08-22 10:11:00,58.0,56.0,29.92,SSE,155,0.0,3.0,92,0.00,,,0.00,,2013-08-22 14:11:00,
2013-08-22 10:22:00,65.0,56.0,29.88,SSE,155,0.0,1.0,73,0.00,,,0.00,,2013-08-22 14:22:00,
2013-08-22 10:33:00,65.0,56.0,29.88,SSE,155,0.0,1.0,73,0.00,,,0.00,,2013-08-22 14:33:00,
2013-08-22 10:52:00,71.0,54.0,29.90,SSE,155,0.0,2.0,56,0.00,,,0.00,,2013-08-22 14:52:00,
2013-08-22 11:02:00,71.0,54.0,29.90,SSE,155,0.0,2.0,56,0.00,,,0.00,,2013-08-22 15:02:00,
2013-08-22 11:12:00,71.0,54.0,29.90,SSE,155,0.0,2.0,56,0.00,,,0.00,,2013-08-22 15:12:00,
2013-08-22 11:22:00,74.0,52.0,29.88,East,85,2.0,6.0,47,0.00,,,0.00,,2013-08-22 15:22:00,
2013-08-22 11:33:00,74.0,52.0,29.88,East,85,2.0,6.0,47,0.00,,,0.00,,2013-08-22 15:33:00,
2013-08-22 11:43:00,74.0,52.0,29.88,East,85,2.0,6.0,47,0.00,,,0.00,,2013-08-22 15:43:00,
2013-08-22 11:55:00,74.0,54.0,29.85,SE,136,6.0,8.0,50,0.00,,,0.00,,2013-08-22 15:55:00,
2013-08-22 12:05:00,74.0,54.0,29.85,SE,136,6.0,8.0,50,0.00,,,0.00,,2013-08-22 16:05:00,
2013-08-22 12:14:00,74.0,54.0,29.85,SE,136,6.0,8.0,50,0.00,,,0.00,,2013-08-22 16:14:00,
2013-08-22 12:24:00,74.0,56.0,29.85,East,97,2.0,10.0,53,0.00,,,0.00,,2013-08-22 16:24:00,
2013-08-22 12:34:00,74.0,56.0,29.85,East,97,2.0,10.0,53,0.00,,,0.00,,2013-08-22 16:34:00,
2013-08-22 12:43:00,74.0,56.0,29.85,East,97,2.0,10.0,53,0.00,,,0.00,,2013-08-22 16:43:00,
2013-08-22 12:54:00,75.0,55.0,29.86,ESE,120,1.0,8.0,49,0.00,,,0.00,,2013-08-22 16:54:00,
2013-08-22 13:02:00,75.0,55.0,29.86,ESE,120,1.0,8.0,49,0.00,,,0.00,,2013-08-22 17:02:00,
2013-08-22 13:12:00,75.0,55.0,29.86,ESE,120,1.0,8.0,49,0.00,,,0.00,,2013-08-22 17:12:00,
2013-08-22 13:24:00,75.0,55.0,29.86,ESE,120,1.0,8.0,49,0.00,,,0.00,,2013-08-22 17:24:00,
2013-08-22 13:43:00,74.0,53.0,29.88,SE,137,1.0,10.0,48,0.00,,,0.00,,2013-08-22 17:43:00,
2013-08-22 13:53:00,74.0,53.0,29.88,SE,137,1.0,10.0,48,0.00,,,0.00,,2013-08-22 17:53:00,
2013-08-22 14:12:00,76.0,53.0,29.85,East,99,3.0,8.0,45,0.00,,,0.00,,2013-08-22 18:12:00,
2013-08-22 14:22:00,76.0,53.0,29.85,East,99,3.0,8.0,45,0.00,,,0.00,,2013-08-22 18:22:00,
2013-08-22 14:43:00,78.0,53.0,29.84,SE,143,3.0,12.0,42,0.00,,,0.00,,2013-08-22 18:43:00,
2013-08-22 14:52:00,78.0,53.0,29.84,SE,143,3.0,12.0,42,0.00,,,0.00,,2013-08-22 18:52:00,
2013-08-22 15:11:00,76.0,52.0,29.86,ENE,71,5.0,13.0,44,0.00,,,0.00,,2013-08-22 19:11:00,
2013-08-22 15:22:00,76.0,52.0,29.86,ENE,71,5.0,13.0,44,0.00,,,0.00,,2013-08-22 19:22:00,
2013-08-22 15:42:00,74.0,53.0,29.87,ESE,110,6.0,12.0,48,0.00,,,0.00,,2013-08-22 19:42:00,
2013-08-22 15:53:00,74.0,53.0,29.87,ESE,110,6.0,12.0,48,0.00,,,0.00,,2013-08-22 19:53:00,
2013-08-22 16:42:00,67.0,54.0,29.92,SSE,164,3.0,10.0,64,0.00,,,0.00,,2013-08-22 20:42:00,
2013-08-22 16:52:00,67.0,54.0,29.92,SSE,164,3.0,10.0,64,0.00,,,0.00,,2013-08-22 20:52:00,
2013-08-22 17:13:00,75.0,58.0,29.83,NNW,347,2.0,8.0,56,0.00,,,0.00,,2013-08-22 21:13:00,
2013-08-22 17:22:00,75.0,58.0,29.83,NNW,347,2.0,8.0,56,0.00,,,0.00,,2013-08-22 21:22:00,
2013-08-22 17:44:00,76.0,53.0,29.80,SSW,196,2.0,9.0,45,0.00,,,0.00,,2013-08-22 21:44:00,
2013-08-22 17:54:00,76.0,53.0,29.80,SSW,196,2.0,9.0,45,0.00,,,0.00,,2013-08-22 21:54:00,
2013-08-22 18:13:00,78.0,52.0,29.82,SE,138,3.0,8.0,40,0.00,,,0.00,,2013-08-22 22:13:00,
2013-08-22 18:24:00,78.0,52.0,29.82,SE,138,3.0,8.0,40,0.00,,,0.00,,2013-08-22 22:24:00,
2013-08-22 18:42:00,77.0,51.0,29.82,SSW,210,2.0,8.0,41,0.00,,,0.00,,2013-08-22 22:42:00,
2013-08-22 18:53:00,77.0,51.0,29.82,SSW,210,2.0,8.0,41,0.00,,,0.00,,2013-08-22 22:53:00,
2013-08-22 19:11:00,76.0,50.0,29.84,ENE,76,1.0,12.0,40,0.00,,,0.00,,2013-08-22 23:11:00,
2013-08-22 19:23:00,76.0,50.0,29.84,ENE,76,1.0,12.0,40,0.00,,,0.00,,2013-08-22 23:23:00,
2013-08-22 19:42:00,71.0,54.0,29.88,North,0,3.0,12.0,54,0.00,,,0.00,,2013-08-22 23:42:00,
2013-08-22 20:12:00,69.0,55.0,29.90,ENE,73,0.0,5.0,60,0.00,,,0.00,,2013-08-23 00:12:00,
2013-08-22 20:23:00,67.0,59.0,29.88,ENE,73,1.0,3.0,76,0.01,,,0.01,,2013-08-23 00:23:00,
2013-08-22 20:33:00,67.0,59.0,29.88,ENE,73,1.0,3.0,76,0.01,,,0.01,,2013-08-23 00:33:00,
2013-08-22 20:42:00,67.0,59.0,29.88,ENE,73,1.0,3.0,76,0.01,,,0.01,,2013-08-23 00:42:00,
2013-08-22 20:52:00,66.0,60.0,29.88,WSW,239,0.0,6.0,82,0.01,,,0.01,,2013-08-23 00:52:00,
2013-08-22 21:02:00,66.0,60.0,29.88,WSW,239,0.0,6.0,82,0.01,,,0.01,,2013-08-23 01:02:00,
2013-08-22 21:11:00,66.0,60.0,29.88,WSW,239,0.0,6.0,82,0.01,,,0.01,,2013-08-23 01:11:00,
2013-08-22 21:21:00,65.0,56.0,29.89,SSE,147,2.0,8.0,74,0.00,,,0.01,,2013-08-23 01:21:00,
2013-08-22 21:33:00,65.0,56.0,29.89,SSE,147,2.0,8.0,74,0.00,,,0.01,,2013-08-23 01:33:00,
2013-08-22 21:42:00,65.0,56.0,29.89,SSE,147,2.0,8.0,74,0.00,,,0.01,,2013-08-23 01:42:00,
2013-08-22 21:52:00,65.0,56.0,29.83,SW,216,0.0,8.0,74,0.00,,,0.01,,2013-08-23 01:52:00,
2013-08-22 22:02:00,65.0,56.0,29.83,SW,216,0.0,8.0,74,0.00,,,0.01,,2013-08-23 02:02:00,
2013-08-22 22:11:00,65.0,56.0,29.83,SW,216,0.0,8.0,74,0.00,,,0.01,,2013-08-23 02:11:00,
2013-08-22 22:23:00,65.0,56.0,29.84,SE,128,0.0,6.0,72,0.00,,,0.01,,2013-08-23 02:23:00,
2013-08-22 22:32:00,65.0,56.0,29.84,SE,128,0.0,6.0,72,0.00,,,0.01,,2013-08-23 02:32:00,
2013-08-22 22:43:00,65.0,56.0,29.84,SE,128,0.0,6.0,72,0.00,,,0.01,,2013-08-23 02:43:00,
2013-08-22 22:52:00,65.0,55.0,29.80,ENE,69,0.0,6.0,71,0.00,,,0.01,,2013-08-23 02:52:00,
2013-08-22 23:02:00,65.0,55.0,29.80,ENE,69,0.0,6.0,71,0.00,,,0.01,,2013-08-23 03:02:00,
2013-08-22 23:12:00,65.0,55.0,29.80,ENE,69,0.0,6.0,71,0.00,,,0.01,,2013-08-23 03:12:00,
2013-08-22 23:23:00,65.0,56.0,29.81,ENE,64,0.0,3.0,73,0.00,,,0.01,,2013-08-23 03:23:00,
2013-08-22 23:34:00,65.0,56.0,29.81,ENE,64,0.0,3.0,73,0.00,,,0.01,,2013-08-23 03:34:00,
2013-08-22 23:55:00,66.0,53.0,29.82,ESE,107,1.0,6.0,64,0.00,,,0.01,,2013-08-23 03:55:00,